sensor_id;sensor_type;location;lat;lon;timestamp;P1;durP1;ratioP1;P2;durP2;ratioP2
58784;SDS011;44557;51.862;19.378;2022-08-21T00:00:50;10.70;;;5.30;;
58784;SDS011;44557;51.862;19.378;2022-08-21T00:01:52;11.10;;;6.10;;
58784;SDS011;44557;51.862;19.378;2022-08-21T00:03:02;9.30;;;5.20;;
58784;SDS011;44557;51.862;19.378;2022-08-21T00:04:06;8.80;;;4.90;;
58784;SDS011;44557;51.862;19.378;2022-08-21T00:05:08;9.00;;;5.50;;
58784;SDS011;44557;51.862;19.378;2022-08-21T00:06:10;9.80;;;5.70;;
58784;SDS011;44557;51.862;19.378;2022-08-21T00:07:12;10.70;;;5.30;;
58784;SDS011;44557;51.862;19.378;2022-08-21T00:08:13;10.30;;;5.50;;
58784;SDS011;44557;51.862;19.378;2022-08-21T00:09:15;9.20;;;5.60;;
58784;SDS011;44557;51.862;19.378;2022-08-21T00:10:17;9.20;;;5.10;;
58784;SDS011;44557;51.862;19.378;2022-08-21T00:11:20;9.50;;;5.20;;
58784;SDS011;44557;51.862;19.378;2022-08-21T00:12:22;10.70;;;5.60;;
58784;SDS011;44557;51.862;19.378;2022-08-21T00:13:24;10.00;;;4.60;;
58784;SDS011;44557;51.862;19.378;2022-08-21T00:14:26;8.00;;;4.40;;
58784;SDS011;44557;51.862;19.378;2022-08-21T00:15:31;10.10;;;4.30;;
58784;SDS011;44557;51.862;19.378;2022-08-21T00:16:34;8.20;;;4.70;;
58784;SDS011;44557;51.862;19.378;2022-08-21T00:17:36;10.60;;;4.60;;
58784;SDS011;44557;51.862;19.378;2022-08-21T00:18:38;10.90;;;4.60;;
58784;SDS011;44557;51.862;19.378;2022-08-21T00:19:39;8.80;;;4.60;;
58784;SDS011;44557;51.862;19.378;2022-08-21T00:20:42;10.50;;;4.40;;
58784;SDS011;44557;51.862;19.378;2022-08-21T00:21:45;9.80;;;4.70;;
58784;SDS011;44557;51.862;19.378;2022-08-21T00:22:46;8.20;;;4.30;;
58784;SDS011;44557;51.862;19.378;2022-08-21T00:23:49;8.80;;;4.40;;
58784;SDS011;44557;51.862;19.378;2022-08-21T00:24:50;9.60;;;4.90;;
58784;SDS011;44557;51.862;19.378;2022-08-21T00:25:52;7.20;;;4.30;;
58784;SDS011;44557;51.862;19.378;2022-08-21T00:26:54;8.60;;;4.00;;
58784;SDS011;44557;51.862;19.378;2022-08-21T00:27:55;9.40;;;5.00;;
58784;SDS011;44557;51.862;19.378;2022-08-21T00:28:58;9.00;;;4.30;;
58784;SDS011;44557;51.862;19.378;2022-08-21T00:29:59;8.10;;;4.80;;
58784;SDS011;44557;51.862;19.378;2022-08-21T00:31:01;9.20;;;4.60;;
58784;SDS011;44557;51.862;19.378;2022-08-21T00:32:04;10.10;;;4.40;;
58784;SDS011;44557;51.862;19.378;2022-08-21T00:33:06;10.20;;;4.50;;
58784;SDS011;44557;51.862;19.378;2022-08-21T00:34:08;7.90;;;4.40;;
58784;SDS011;44557;51.862;19.378;2022-08-21T00:35:14;7.90;;;4.00;;
58784;SDS011;44557;51.862;19.378;2022-08-21T00:36:18;7.10;;;4.20;;
58784;SDS011;44557;51.862;19.378;2022-08-21T00:37:20;8.70;;;4.70;;
58784;SDS011;44557;51.862;19.378;2022-08-21T00:38:21;9.10;;;4.40;;
58784;SDS011;44557;51.862;19.378;2022-08-21T00:39:23;8.20;;;4.60;;
58784;SDS011;44557;51.862;19.378;2022-08-21T00:40:32;8.20;;;4.30;;
58784;SDS011;44557;51.862;19.378;2022-08-21T00:41:38;7.80;;;4.20;;
58784;SDS011;44557;51.862;19.378;2022-08-21T00:42:40;6.90;;;3.80;;
58784;SDS011;44557;51.862;19.378;2022-08-21T00:43:42;8.80;;;4.80;;
58784;SDS011;44557;51.862;19.378;2022-08-21T00:44:44;10.10;;;4.60;;
58784;SDS011;44557;51.862;19.378;2022-08-21T00:45:48;9.50;;;4.20;;
58784;SDS011;44557;51.862;19.378;2022-08-21T00:46:51;6.80;;;4.00;;
58784;SDS011;44557;51.862;19.378;2022-08-21T00:47:53;8.50;;;4.30;;
58784;SDS011;44557;51.862;19.378;2022-08-21T00:48:56;7.80;;;4.60;;
58784;SDS011;44557;51.862;19.378;2022-08-21T00:49:57;8.30;;;4.50;;
58784;SDS011;44557;51.862;19.378;2022-08-21T00:52:10;9.00;;;4.30;;
58784;SDS011;44557;51.862;19.378;2022-08-21T00:53:17;8.30;;;4.50;;
58784;SDS011;44557;51.862;19.378;2022-08-21T00:54:19;11.40;;;4.60;;
58784;SDS011;44557;51.862;19.378;2022-08-21T00:55:23;10.20;;;4.90;;
58784;SDS011;44557;51.862;19.378;2022-08-21T00:56:27;6.90;;;4.20;;
58784;SDS011;44557;51.862;19.378;2022-08-21T00:57:36;10.20;;;5.30;;
58784;SDS011;44557;51.862;19.378;2022-08-21T00:58:41;7.70;;;4.40;;
58784;SDS011;44557;51.862;19.378;2022-08-21T00:59:45;8.00;;;4.20;;
58784;SDS011;44557;51.862;19.378;2022-08-21T01:00:50;9.90;;;4.80;;
58784;SDS011;44557;51.862;19.378;2022-08-21T01:01:52;8.50;;;4.40;;
58784;SDS011;44557;51.862;19.378;2022-08-21T01:02:54;8.30;;;4.40;;
58784;SDS011;44557;51.862;19.378;2022-08-21T01:03:57;9.10;;;4.30;;
58784;SDS011;44557;51.862;19.378;2022-08-21T01:04:59;8.30;;;4.40;;
58784;SDS011;44557;51.862;19.378;2022-08-21T01:06:00;9.60;;;4.20;;
58784;SDS011;44557;51.862;19.378;2022-08-21T01:07:03;9.50;;;4.30;;
58784;SDS011;44557;51.862;19.378;2022-08-21T01:08:06;7.30;;;4.10;;
58784;SDS011;44557;51.862;19.378;2022-08-21T01:09:09;9.30;;;4.50;;
58784;SDS011;44557;51.862;19.378;2022-08-21T01:10:12;9.10;;;4.40;;
58784;SDS011;44557;51.862;19.378;2022-08-21T01:11:15;9.10;;;3.90;;
58784;SDS011;44557;51.862;19.378;2022-08-21T01:12:17;7.80;;;4.10;;
58784;SDS011;44557;51.862;19.378;2022-08-21T01:13:20;7.70;;;4.60;;
58784;SDS011;44557;51.862;19.378;2022-08-21T01:14:25;7.90;;;4.70;;
58784;SDS011;44557;51.862;19.378;2022-08-21T01:15:29;9.00;;;5.00;;
58784;SDS011;44557;51.862;19.378;2022-08-21T01:16:35;8.50;;;4.50;;
58784;SDS011;44557;51.862;19.378;2022-08-21T01:17:37;8.70;;;4.20;;
58784;SDS011;44557;51.862;19.378;2022-08-21T01:18:38;8.10;;;4.00;;
58784;SDS011;44557;51.862;19.378;2022-08-21T01:19:40;8.60;;;4.20;;
58784;SDS011;44557;51.862;19.378;2022-08-21T01:20:44;10.10;;;4.50;;
58784;SDS011;44557;51.862;19.378;2022-08-21T01:22:05;9.60;;;4.20;;
58784;SDS011;44557;51.862;19.378;2022-08-21T01:23:07;8.20;;;4.50;;
58784;SDS011;44557;51.862;19.378;2022-08-21T01:24:09;10.70;;;5.10;;
58784;SDS011;44557;51.862;19.378;2022-08-21T01:25:13;8.40;;;4.40;;
58784;SDS011;44557;51.862;19.378;2022-08-21T01:26:18;10.00;;;4.80;;
58784;SDS011;44557;51.862;19.378;2022-08-21T01:27:23;9.40;;;4.60;;
58784;SDS011;44557;51.862;19.378;2022-08-21T01:28:25;11.80;;;4.70;;
58784;SDS011;44557;51.862;19.378;2022-08-21T01:29:38;9.30;;;4.70;;
58784;SDS011;44557;51.862;19.378;2022-08-21T01:30:46;10.50;;;4.40;;
58784;SDS011;44557;51.862;19.378;2022-08-21T01:31:48;8.00;;;4.60;;
58784;SDS011;44557;51.862;19.378;2022-08-21T01:32:50;9.00;;;4.60;;
58784;SDS011;44557;51.862;19.378;2022-08-21T01:33:53;7.90;;;4.50;;
58784;SDS011;44557;51.862;19.378;2022-08-21T01:34:56;8.00;;;4.60;;
58784;SDS011;44557;51.862;19.378;2022-08-21T01:35:57;9.60;;;5.10;;
58784;SDS011;44557;51.862;19.378;2022-08-21T01:36:59;7.50;;;4.40;;
58784;SDS011;44557;51.862;19.378;2022-08-21T01:38:01;7.90;;;4.60;;
58784;SDS011;44557;51.862;19.378;2022-08-21T01:39:03;10.90;;;5.30;;
58784;SDS011;44557;51.862;19.378;2022-08-21T01:40:06;8.30;;;4.90;;
58784;SDS011;44557;51.862;19.378;2022-08-21T01:41:09;11.10;;;4.90;;
58784;SDS011;44557;51.862;19.378;2022-08-21T01:42:10;9.20;;;4.50;;
58784;SDS011;44557;51.862;19.378;2022-08-21T01:43:13;8.90;;;4.60;;
58784;SDS011;44557;51.862;19.378;2022-08-21T01:44:14;9.50;;;5.00;;
58784;SDS011;44557;51.862;19.378;2022-08-21T01:45:16;9.00;;;4.90;;
58784;SDS011;44557;51.862;19.378;2022-08-21T01:46:18;9.90;;;4.60;;
58784;SDS011;44557;51.862;19.378;2022-08-21T01:47:19;9.90;;;4.60;;
58784;SDS011;44557;51.862;19.378;2022-08-21T01:48:21;8.80;;;4.60;;
58784;SDS011;44557;51.862;19.378;2022-08-21T01:49:22;7.80;;;4.60;;
58784;SDS011;44557;51.862;19.378;2022-08-21T01:50:24;9.50;;;4.50;;
58784;SDS011;44557;51.862;19.378;2022-08-21T01:51:25;9.10;;;5.20;;
58784;SDS011;44557;51.862;19.378;2022-08-21T01:52:28;9.90;;;4.70;;
58784;SDS011;44557;51.862;19.378;2022-08-21T01:53:30;10.70;;;5.10;;
58784;SDS011;44557;51.862;19.378;2022-08-21T01:54:32;7.80;;;4.50;;
58784;SDS011;44557;51.862;19.378;2022-08-21T01:55:34;7.90;;;4.70;;
58784;SDS011;44557;51.862;19.378;2022-08-21T01:56:39;8.50;;;4.60;;
58784;SDS011;44557;51.862;19.378;2022-08-21T01:57:45;10.30;;;5.00;;
58784;SDS011;44557;51.862;19.378;2022-08-21T01:58:49;9.00;;;4.50;;
58784;SDS011;44557;51.862;19.378;2022-08-21T01:59:51;10.00;;;4.90;;
58784;SDS011;44557;51.862;19.378;2022-08-21T02:00:52;10.80;;;5.00;;
58784;SDS011;44557;51.862;19.378;2022-08-21T02:01:54;9.40;;;4.50;;
58784;SDS011;44557;51.862;19.378;2022-08-21T02:02:56;9.60;;;4.70;;
58784;SDS011;44557;51.862;19.378;2022-08-21T02:03:58;9.40;;;4.60;;
58784;SDS011;44557;51.862;19.378;2022-08-21T02:05:00;11.70;;;5.00;;
58784;SDS011;44557;51.862;19.378;2022-08-21T02:06:02;10.10;;;4.80;;
58784;SDS011;44557;51.862;19.378;2022-08-21T02:07:06;10.30;;;5.00;;
58784;SDS011;44557;51.862;19.378;2022-08-21T02:08:08;9.20;;;5.00;;
58784;SDS011;44557;51.862;19.378;2022-08-21T02:09:10;8.80;;;5.20;;
58784;SDS011;44557;51.862;19.378;2022-08-21T02:10:13;9.70;;;5.00;;
58784;SDS011;44557;51.862;19.378;2022-08-21T02:11:17;8.20;;;4.80;;
58784;SDS011;44557;51.862;19.378;2022-08-21T02:12:19;10.80;;;5.80;;
58784;SDS011;44557;51.862;19.378;2022-08-21T02:13:21;11.30;;;5.50;;
58784;SDS011;44557;51.862;19.378;2022-08-21T02:14:22;11.70;;;5.40;;
58784;SDS011;44557;51.862;19.378;2022-08-21T02:15:24;10.90;;;5.80;;
58784;SDS011;44557;51.862;19.378;2022-08-21T02:16:25;10.70;;;6.00;;
58784;SDS011;44557;51.862;19.378;2022-08-21T02:17:27;12.00;;;6.00;;
58784;SDS011;44557;51.862;19.378;2022-08-21T02:18:28;12.60;;;6.50;;
58784;SDS011;44557;51.862;19.378;2022-08-21T02:19:30;12.10;;;6.00;;
58784;SDS011;44557;51.862;19.378;2022-08-21T02:20:34;11.20;;;6.50;;
58784;SDS011;44557;51.862;19.378;2022-08-21T02:21:41;8.80;;;5.70;;
58784;SDS011;44557;51.862;19.378;2022-08-21T02:22:43;8.80;;;6.00;;
58784;SDS011;44557;51.862;19.378;2022-08-21T02:23:44;10.40;;;5.90;;
58784;SDS011;44557;51.862;19.378;2022-08-21T02:24:47;9.60;;;5.90;;
58784;SDS011;44557;51.862;19.378;2022-08-21T02:25:48;8.90;;;6.00;;
58784;SDS011;44557;51.862;19.378;2022-08-21T02:26:50;10.00;;;6.40;;
58784;SDS011;44557;51.862;19.378;2022-08-21T02:27:51;9.70;;;6.20;;
58784;SDS011;44557;51.862;19.378;2022-08-21T02:28:54;11.60;;;6.10;;
58784;SDS011;44557;51.862;19.378;2022-08-21T02:29:56;11.30;;;5.90;;
58784;SDS011;44557;51.862;19.378;2022-08-21T02:30:58;12.00;;;5.90;;
58784;SDS011;44557;51.862;19.378;2022-08-21T02:32:02;9.30;;;6.10;;
58784;SDS011;44557;51.862;19.378;2022-08-21T02:33:04;11.00;;;6.00;;
58784;SDS011;44557;51.862;19.378;2022-08-21T02:34:06;9.10;;;6.20;;
58784;SDS011;44557;51.862;19.378;2022-08-21T02:35:09;11.50;;;6.30;;
58784;SDS011;44557;51.862;19.378;2022-08-21T02:36:11;10.90;;;6.30;;
58784;SDS011;44557;51.862;19.378;2022-08-21T02:37:14;11.20;;;6.00;;
58784;SDS011;44557;51.862;19.378;2022-08-21T02:38:17;11.40;;;6.60;;
58784;SDS011;44557;51.862;19.378;2022-08-21T02:39:21;9.20;;;6.30;;
58784;SDS011;44557;51.862;19.378;2022-08-21T02:40:24;10.80;;;6.80;;
58784;SDS011;44557;51.862;19.378;2022-08-21T02:41:29;11.50;;;7.00;;
58784;SDS011;44557;51.862;19.378;2022-08-21T02:42:30;11.30;;;6.90;;
58784;SDS011;44557;51.862;19.378;2022-08-21T02:43:32;10.60;;;7.10;;
58784;SDS011;44557;51.862;19.378;2022-08-21T02:44:33;9.30;;;6.80;;
58784;SDS011;44557;51.862;19.378;2022-08-21T02:45:36;12.50;;;6.80;;
58784;SDS011;44557;51.862;19.378;2022-08-21T02:46:38;11.50;;;6.90;;
58784;SDS011;44557;51.862;19.378;2022-08-21T02:47:40;9.80;;;6.60;;
58784;SDS011;44557;51.862;19.378;2022-08-21T02:48:48;10.40;;;6.80;;
58784;SDS011;44557;51.862;19.378;2022-08-21T02:49:51;11.60;;;6.70;;
58784;SDS011;44557;51.862;19.378;2022-08-21T02:50:54;12.50;;;7.20;;
58784;SDS011;44557;51.862;19.378;2022-08-21T02:51:59;10.90;;;6.30;;
58784;SDS011;44557;51.862;19.378;2022-08-21T02:53:00;12.00;;;6.30;;
58784;SDS011;44557;51.862;19.378;2022-08-21T02:54:02;11.40;;;6.70;;
58784;SDS011;44557;51.862;19.378;2022-08-21T02:55:04;13.60;;;6.70;;
58784;SDS011;44557;51.862;19.378;2022-08-21T02:56:07;11.90;;;7.20;;
58784;SDS011;44557;51.862;19.378;2022-08-21T02:57:10;12.60;;;6.90;;
58784;SDS011;44557;51.862;19.378;2022-08-21T02:58:13;12.40;;;7.80;;
58784;SDS011;44557;51.862;19.378;2022-08-21T02:59:16;12.10;;;7.30;;
58784;SDS011;44557;51.862;19.378;2022-08-21T03:00:18;12.00;;;6.90;;
58784;SDS011;44557;51.862;19.378;2022-08-21T03:01:21;12.60;;;7.40;;
58784;SDS011;44557;51.862;19.378;2022-08-21T03:02:23;14.70;;;8.20;;
58784;SDS011;44557;51.862;19.378;2022-08-21T03:03:25;14.10;;;7.90;;
58784;SDS011;44557;51.862;19.378;2022-08-21T03:04:28;10.20;;;7.70;;
58784;SDS011;44557;51.862;19.378;2022-08-21T03:05:29;11.50;;;7.40;;
58784;SDS011;44557;51.862;19.378;2022-08-21T03:06:32;13.60;;;7.40;;
58784;SDS011;44557;51.862;19.378;2022-08-21T03:07:35;13.60;;;8.00;;
58784;SDS011;44557;51.862;19.378;2022-08-21T03:08:37;12.20;;;7.80;;
58784;SDS011;44557;51.862;19.378;2022-08-21T03:09:39;11.60;;;7.50;;
58784;SDS011;44557;51.862;19.378;2022-08-21T03:10:42;13.80;;;7.80;;
58784;SDS011;44557;51.862;19.378;2022-08-21T03:11:45;12.30;;;7.30;;
58784;SDS011;44557;51.862;19.378;2022-08-21T03:12:47;13.20;;;8.00;;
58784;SDS011;44557;51.862;19.378;2022-08-21T03:13:50;13.00;;;7.60;;
58784;SDS011;44557;51.862;19.378;2022-08-21T03:14:51;11.70;;;7.80;;
58784;SDS011;44557;51.862;19.378;2022-08-21T03:15:53;10.10;;;7.60;;
58784;SDS011;44557;51.862;19.378;2022-08-21T03:16:55;11.90;;;8.00;;
58784;SDS011;44557;51.862;19.378;2022-08-21T03:17:56;13.20;;;7.90;;
58784;SDS011;44557;51.862;19.378;2022-08-21T03:18:58;13.40;;;7.90;;
58784;SDS011;44557;51.862;19.378;2022-08-21T03:20:00;11.00;;;7.20;;
58784;SDS011;44557;51.862;19.378;2022-08-21T03:21:03;11.70;;;7.60;;
58784;SDS011;44557;51.862;19.378;2022-08-21T03:22:06;11.50;;;7.30;;
58784;SDS011;44557;51.862;19.378;2022-08-21T03:23:08;10.20;;;7.00;;
58784;SDS011;44557;51.862;19.378;2022-08-21T03:24:10;10.70;;;8.00;;
58784;SDS011;44557;51.862;19.378;2022-08-21T03:25:11;9.70;;;6.90;;
58784;SDS011;44557;51.862;19.378;2022-08-21T03:26:13;9.30;;;7.20;;
58784;SDS011;44557;51.862;19.378;2022-08-21T03:27:14;10.40;;;6.60;;
58784;SDS011;44557;51.862;19.378;2022-08-21T03:28:18;13.10;;;7.50;;
58784;SDS011;44557;51.862;19.378;2022-08-21T03:29:23;13.50;;;7.40;;
58784;SDS011;44557;51.862;19.378;2022-08-21T03:30:24;11.00;;;7.30;;
58784;SDS011;44557;51.862;19.378;2022-08-21T03:31:26;12.50;;;8.20;;
58784;SDS011;44557;51.862;19.378;2022-08-21T03:32:33;12.60;;;7.40;;
58784;SDS011;44557;51.862;19.378;2022-08-21T03:33:36;11.30;;;7.10;;
58784;SDS011;44557;51.862;19.378;2022-08-21T03:34:38;13.20;;;7.70;;
58784;SDS011;44557;51.862;19.378;2022-08-21T03:35:40;9.40;;;6.90;;
58784;SDS011;44557;51.862;19.378;2022-08-21T03:36:43;10.90;;;7.20;;
58784;SDS011;44557;51.862;19.378;2022-08-21T03:37:45;9.80;;;7.20;;
58784;SDS011;44557;51.862;19.378;2022-08-21T03:38:48;11.90;;;7.60;;
58784;SDS011;44557;51.862;19.378;2022-08-21T03:39:49;10.40;;;6.70;;
58784;SDS011;44557;51.862;19.378;2022-08-21T03:40:52;11.80;;;7.10;;
58784;SDS011;44557;51.862;19.378;2022-08-21T03:41:54;12.70;;;6.90;;
58784;SDS011;44557;51.862;19.378;2022-08-21T03:42:56;9.50;;;6.70;;
58784;SDS011;44557;51.862;19.378;2022-08-21T03:43:57;9.50;;;6.40;;
58784;SDS011;44557;51.862;19.378;2022-08-21T03:45:00;12.40;;;7.30;;
58784;SDS011;44557;51.862;19.378;2022-08-21T03:46:02;10.50;;;7.30;;
58784;SDS011;44557;51.862;19.378;2022-08-21T03:47:04;11.00;;;7.20;;
58784;SDS011;44557;51.862;19.378;2022-08-21T03:48:07;11.40;;;6.60;;
58784;SDS011;44557;51.862;19.378;2022-08-21T03:49:09;11.30;;;7.00;;
58784;SDS011;44557;51.862;19.378;2022-08-21T03:50:10;9.80;;;6.90;;
58784;SDS011;44557;51.862;19.378;2022-08-21T03:51:12;8.40;;;6.20;;
58784;SDS011;44557;51.862;19.378;2022-08-21T03:52:13;9.40;;;6.40;;
58784;SDS011;44557;51.862;19.378;2022-08-21T03:53:15;8.90;;;6.60;;
58784;SDS011;44557;51.862;19.378;2022-08-21T03:54:17;10.90;;;6.80;;
58784;SDS011;44557;51.862;19.378;2022-08-21T03:55:19;9.90;;;6.60;;
58784;SDS011;44557;51.862;19.378;2022-08-21T03:56:20;10.30;;;6.80;;
58784;SDS011;44557;51.862;19.378;2022-08-21T03:57:22;11.00;;;6.80;;
58784;SDS011;44557;51.862;19.378;2022-08-21T03:58:24;9.50;;;6.90;;
58784;SDS011;44557;51.862;19.378;2022-08-21T03:59:27;11.70;;;6.70;;
58784;SDS011;44557;51.862;19.378;2022-08-21T04:00:30;10.80;;;6.70;;
58784;SDS011;44557;51.862;19.378;2022-08-21T04:01:31;10.00;;;6.90;;
58784;SDS011;44557;51.862;19.378;2022-08-21T04:02:33;8.90;;;6.40;;
58784;SDS011;44557;51.862;19.378;2022-08-21T04:03:35;8.80;;;6.00;;
58784;SDS011;44557;51.862;19.378;2022-08-21T04:04:38;10.10;;;6.40;;
58784;SDS011;44557;51.862;19.378;2022-08-21T04:05:39;11.30;;;6.90;;
58784;SDS011;44557;51.862;19.378;2022-08-21T04:06:41;9.10;;;6.70;;
58784;SDS011;44557;51.862;19.378;2022-08-21T04:07:43;9.90;;;6.40;;
58784;SDS011;44557;51.862;19.378;2022-08-21T04:08:44;8.60;;;6.50;;
58784;SDS011;44557;51.862;19.378;2022-08-21T04:09:46;9.70;;;6.90;;
58784;SDS011;44557;51.862;19.378;2022-08-21T04:10:48;9.80;;;6.70;;
58784;SDS011;44557;51.862;19.378;2022-08-21T04:11:52;7.90;;;6.00;;
58784;SDS011;44557;51.862;19.378;2022-08-21T04:12:55;9.20;;;6.50;;
58784;SDS011;44557;51.862;19.378;2022-08-21T04:13:57;11.90;;;6.70;;
58784;SDS011;44557;51.862;19.378;2022-08-21T04:14:59;9.40;;;6.90;;
58784;SDS011;44557;51.862;19.378;2022-08-21T04:16:03;9.70;;;6.80;;
58784;SDS011;44557;51.862;19.378;2022-08-21T04:17:04;9.40;;;6.20;;
58784;SDS011;44557;51.862;19.378;2022-08-21T04:18:06;12.40;;;7.00;;
58784;SDS011;44557;51.862;19.378;2022-08-21T04:19:10;8.90;;;6.50;;
58784;SDS011;44557;51.862;19.378;2022-08-21T04:20:15;11.40;;;6.50;;
58784;SDS011;44557;51.862;19.378;2022-08-21T04:21:18;9.50;;;6.50;;
58784;SDS011;44557;51.862;19.378;2022-08-21T04:22:19;10.00;;;6.40;;
58784;SDS011;44557;51.862;19.378;2022-08-21T04:23:21;12.00;;;6.40;;
58784;SDS011;44557;51.862;19.378;2022-08-21T04:24:23;10.50;;;7.00;;
58784;SDS011;44557;51.862;19.378;2022-08-21T04:25:24;9.90;;;6.60;;
58784;SDS011;44557;51.862;19.378;2022-08-21T04:26:29;10.50;;;6.00;;
58784;SDS011;44557;51.862;19.378;2022-08-21T04:27:33;10.10;;;6.50;;
58784;SDS011;44557;51.862;19.378;2022-08-21T04:28:35;8.80;;;6.00;;
58784;SDS011;44557;51.862;19.378;2022-08-21T04:29:36;10.30;;;6.20;;
58784;SDS011;44557;51.862;19.378;2022-08-21T04:30:38;9.40;;;5.80;;
58784;SDS011;44557;51.862;19.378;2022-08-21T04:31:40;11.80;;;6.00;;
58784;SDS011;44557;51.862;19.378;2022-08-21T04:32:42;11.20;;;7.30;;
58784;SDS011;44557;51.862;19.378;2022-08-21T04:33:45;9.90;;;6.50;;
58784;SDS011;44557;51.862;19.378;2022-08-21T04:34:47;8.40;;;6.20;;
58784;SDS011;44557;51.862;19.378;2022-08-21T04:35:49;10.50;;;6.30;;
58784;SDS011;44557;51.862;19.378;2022-08-21T04:36:51;12.00;;;6.20;;
58784;SDS011;44557;51.862;19.378;2022-08-21T04:37:52;10.00;;;6.70;;
58784;SDS011;44557;51.862;19.378;2022-08-21T04:38:54;11.80;;;6.40;;
58784;SDS011;44557;51.862;19.378;2022-08-21T04:39:56;11.80;;;6.70;;
58784;SDS011;44557;51.862;19.378;2022-08-21T04:40:59;11.20;;;6.90;;
58784;SDS011;44557;51.862;19.378;2022-08-21T04:42:01;11.60;;;7.00;;
58784;SDS011;44557;51.862;19.378;2022-08-21T04:43:06;10.10;;;6.80;;
58784;SDS011;44557;51.862;19.378;2022-08-21T04:44:09;9.00;;;6.70;;
58784;SDS011;44557;51.862;19.378;2022-08-21T04:45:31;10.20;;;7.00;;
58784;SDS011;44557;51.862;19.378;2022-08-21T04:46:35;10.40;;;6.60;;
58784;SDS011;44557;51.862;19.378;2022-08-21T04:47:37;11.00;;;7.00;;
58784;SDS011;44557;51.862;19.378;2022-08-21T04:48:39;10.20;;;7.30;;
58784;SDS011;44557;51.862;19.378;2022-08-21T04:49:42;12.10;;;6.90;;
58784;SDS011;44557;51.862;19.378;2022-08-21T04:50:52;10.00;;;6.60;;
58784;SDS011;44557;51.862;19.378;2022-08-21T04:52:02;13.20;;;8.10;;
58784;SDS011;44557;51.862;19.378;2022-08-21T04:53:08;9.20;;;7.40;;
58784;SDS011;44557;51.862;19.378;2022-08-21T04:54:14;9.70;;;6.70;;
58784;SDS011;44557;51.862;19.378;2022-08-21T04:55:20;11.00;;;7.30;;
58784;SDS011;44557;51.862;19.378;2022-08-21T04:57:36;9.90;;;7.00;;
58784;SDS011;44557;51.862;19.378;2022-08-21T04:58:38;11.00;;;7.30;;
58784;SDS011;44557;51.862;19.378;2022-08-21T04:59:43;10.80;;;7.30;;
58784;SDS011;44557;51.862;19.378;2022-08-21T05:00:48;10.90;;;7.20;;
58784;SDS011;44557;51.862;19.378;2022-08-21T05:01:50;10.40;;;7.00;;
58784;SDS011;44557;51.862;19.378;2022-08-21T05:02:52;10.60;;;7.30;;
58784;SDS011;44557;51.862;19.378;2022-08-21T05:03:58;9.80;;;7.20;;
58784;SDS011;44557;51.862;19.378;2022-08-21T05:05:01;10.10;;;6.80;;
58784;SDS011;44557;51.862;19.378;2022-08-21T05:06:04;12.00;;;8.00;;
58784;SDS011;44557;51.862;19.378;2022-08-21T05:07:11;10.40;;;6.60;;
58784;SDS011;44557;51.862;19.378;2022-08-21T05:08:17;11.70;;;7.30;;
58784;SDS011;44557;51.862;19.378;2022-08-21T05:09:22;10.20;;;7.10;;
58784;SDS011;44557;51.862;19.378;2022-08-21T05:10:25;11.00;;;6.70;;
58784;SDS011;44557;51.862;19.378;2022-08-21T05:11:27;10.70;;;7.30;;
58784;SDS011;44557;51.862;19.378;2022-08-21T05:12:31;9.60;;;7.00;;
58784;SDS011;44557;51.862;19.378;2022-08-21T05:13:35;11.90;;;6.90;;
58784;SDS011;44557;51.862;19.378;2022-08-21T05:14:37;9.80;;;6.90;;
58784;SDS011;44557;51.862;19.378;2022-08-21T05:15:39;13.50;;;7.20;;
58784;SDS011;44557;51.862;19.378;2022-08-21T05:16:41;10.40;;;7.40;;
58784;SDS011;44557;51.862;19.378;2022-08-21T05:17:45;13.10;;;7.70;;
58784;SDS011;44557;51.862;19.378;2022-08-21T05:18:46;11.10;;;7.70;;
58784;SDS011;44557;51.862;19.378;2022-08-21T05:19:48;12.10;;;7.60;;
58784;SDS011;44557;51.862;19.378;2022-08-21T05:20:50;11.80;;;7.60;;
58784;SDS011;44557;51.862;19.378;2022-08-21T05:21:52;11.70;;;7.50;;
58784;SDS011;44557;51.862;19.378;2022-08-21T05:22:55;10.80;;;7.30;;
58784;SDS011;44557;51.862;19.378;2022-08-21T05:23:56;11.80;;;7.70;;
58784;SDS011;44557;51.862;19.378;2022-08-21T05:24:58;11.00;;;7.00;;
58784;SDS011;44557;51.862;19.378;2022-08-21T05:25:59;11.10;;;7.50;;
58784;SDS011;44557;51.862;19.378;2022-08-21T05:27:02;10.10;;;7.20;;
58784;SDS011;44557;51.862;19.378;2022-08-21T05:28:04;13.30;;;8.10;;
58784;SDS011;44557;51.862;19.378;2022-08-21T05:29:07;10.10;;;6.90;;
58784;SDS011;44557;51.862;19.378;2022-08-21T05:30:09;10.00;;;7.10;;
58784;SDS011;44557;51.862;19.378;2022-08-21T05:31:11;13.70;;;7.60;;
58784;SDS011;44557;51.862;19.378;2022-08-21T05:32:13;12.00;;;7.50;;
58784;SDS011;44557;51.862;19.378;2022-08-21T05:33:15;13.60;;;7.40;;
58784;SDS011;44557;51.862;19.378;2022-08-21T05:34:18;11.90;;;7.60;;
58784;SDS011;44557;51.862;19.378;2022-08-21T05:35:24;9.00;;;6.80;;
58784;SDS011;44557;51.862;19.378;2022-08-21T05:36:27;10.60;;;7.10;;
58784;SDS011;44557;51.862;19.378;2022-08-21T05:37:28;12.50;;;7.50;;
58784;SDS011;44557;51.862;19.378;2022-08-21T05:38:30;11.50;;;7.50;;
58784;SDS011;44557;51.862;19.378;2022-08-21T05:39:32;10.30;;;7.30;;
58784;SDS011;44557;51.862;19.378;2022-08-21T05:40:33;10.70;;;7.20;;
58784;SDS011;44557;51.862;19.378;2022-08-21T05:41:35;11.10;;;7.30;;
58784;SDS011;44557;51.862;19.378;2022-08-21T05:42:37;12.40;;;7.30;;
58784;SDS011;44557;51.862;19.378;2022-08-21T05:43:38;11.00;;;7.20;;
58784;SDS011;44557;51.862;19.378;2022-08-21T05:44:40;12.30;;;6.50;;
58784;SDS011;44557;51.862;19.378;2022-08-21T05:45:41;11.30;;;7.00;;
58784;SDS011;44557;51.862;19.378;2022-08-21T05:46:43;13.10;;;7.40;;
58784;SDS011;44557;51.862;19.378;2022-08-21T05:47:44;10.40;;;7.20;;
58784;SDS011;44557;51.862;19.378;2022-08-21T05:48:46;12.00;;;7.00;;
58784;SDS011;44557;51.862;19.378;2022-08-21T05:49:47;10.40;;;7.20;;
58784;SDS011;44557;51.862;19.378;2022-08-21T05:50:49;11.20;;;6.90;;
58784;SDS011;44557;51.862;19.378;2022-08-21T05:51:53;12.10;;;7.40;;
58784;SDS011;44557;51.862;19.378;2022-08-21T05:52:54;11.00;;;6.10;;
58784;SDS011;44557;51.862;19.378;2022-08-21T05:53:56;9.80;;;6.30;;
58784;SDS011;44557;51.862;19.378;2022-08-21T05:54:57;11.80;;;6.50;;
58784;SDS011;44557;51.862;19.378;2022-08-21T05:55:59;12.90;;;6.80;;
58784;SDS011;44557;51.862;19.378;2022-08-21T05:57:01;10.50;;;6.40;;
58784;SDS011;44557;51.862;19.378;2022-08-21T05:58:02;12.60;;;6.90;;
58784;SDS011;44557;51.862;19.378;2022-08-21T05:59:04;10.50;;;7.10;;
58784;SDS011;44557;51.862;19.378;2022-08-21T06:00:06;9.50;;;7.40;;
58784;SDS011;44557;51.862;19.378;2022-08-21T06:01:13;11.30;;;7.60;;
58784;SDS011;44557;51.862;19.378;2022-08-21T06:02:19;13.90;;;7.20;;
58784;SDS011;44557;51.862;19.378;2022-08-21T06:03:23;11.20;;;6.90;;
58784;SDS011;44557;51.862;19.378;2022-08-21T06:04:27;12.80;;;7.40;;
58784;SDS011;44557;51.862;19.378;2022-08-21T06:05:28;11.00;;;7.10;;
58784;SDS011;44557;51.862;19.378;2022-08-21T06:06:30;14.10;;;7.70;;
58784;SDS011;44557;51.862;19.378;2022-08-21T06:07:32;11.30;;;7.20;;
58784;SDS011;44557;51.862;19.378;2022-08-21T06:08:33;11.40;;;7.80;;
58784;SDS011;44557;51.862;19.378;2022-08-21T06:09:35;10.40;;;7.60;;
58784;SDS011;44557;51.862;19.378;2022-08-21T06:10:39;10.20;;;7.40;;
58784;SDS011;44557;51.862;19.378;2022-08-21T06:11:40;13.20;;;7.90;;